KPPA/PPA METAR and TAF weather

Enter ICAO airport designator
Station Type Date Time Source
KPPA METAR 2022/01/26 13:55 UTC NOAA

KPPA 261355Z AUTO 03003KT 7SM -SN SCT035 OVC045 M06/M08 A3032 RMK AO2 T10651081


Station Type Date Time Source
KPPA Decoded METAR 2022/01/26 13:55 UTC NOAA

Pampa, Perry Lefors Field Airport, TX, United States (KPPA) 35-36-46N 100-59-46W
Jan 26, 2022 - 08:55 AM EST / 2022.01.26 1355 UTC
Wind: from the NNE (030 degrees) at 3 MPH (3 KT):0
Visibility: 7 mile(s):0
Sky conditions: overcast
Weather: light snow
Temperature: 20.3 F (-6.5 C)
Dew Point: 17.4 F (-8.1 C)
Relative Humidity: 88%
Pressure (altimeter): 30.32 in. Hg (1026 hPa)
ob: KPPA 261355Z AUTO 03003KT 7SM -SN SCT035 OVC045 M06/M08 A3032 RMK AO2 T10651081
cycle: 14

Station Type Date Time Source
KPPA TAF UTC NOAA

Error!

Example: see airport list